Wilmington, North Carolina
Current Conditions -  °F | °C
As of 4:53 AM on Saturday 20 Dec 2014 (Local Time) from KILM Reporting Station
Overcast Overcast  
Wind Chill: 39°   Ceiling: 10000
Heat Index: 43°   Visibility: 10mi
Dew Point: 38°   Wind: 7mph
Humidity: 82%   Direction: 50°NE
Pressure: 30.2"   Gusts: NA
Location:  34.24°N, 77.94°W
Report Text: KILM 200953Z 05006KT 10SM OVC100 06/03 A3020 RMK AO2 SLP227 T00610033
Loading
Personal Weather Stations






























Interactive Weather Map New forecast layout! Learn more

10-Day Weather Forecast

Advertisements
Track Severe Weather on mobile